CheckWX is a tool to help pilots better visualize weather data.  It is not intended as a substitute for an official pre-flight weather briefing.

18:50:58 UTC

CYGQ TAF
Geraldton Greenstone Regional Airport
Geraldton, Canada
TAF AMD CYGQ 221607Z 2216/2302 22010KT P6SM SCT020 BKN100 TEMPO 2216/2218 5SM -SN BKN020 FM221800 23010G20KT P6SM -SN OVC025 TEMPO 2218/2222 3SM -SN OVC020 PROB30 2218/2219 2SM -SN FM222200 25012G22KT P6SM BKN030 TEMPO 2222/2302 BKN020 BECMG 2222/2224 25006KT RMK NXT FCST BY 222000Z

Feb-22@
16:00 UTC

Feb-22 @ 16:00 UTC

Feb-22@
18:00 UTC

Feb-22 @ 18:00 UTC

TAF AMD CYGQ 221607Z 2216/2302 22010KT P6SM SCT020 BKN100

Expired

Wind
  • 220° at 10 KTS
Cloud Levels
  • Scattered at 2,000' AGL
  • Broken at 10,000' AGL

Feb-22@
16:00 UTC

Feb-22 @ 16:00 UTC

Feb-22@
18:00 UTC

Feb-22 @ 18:00 UTC

TEMPO 2216/2218 5SM -SN BKN020

Expired

Conditions
Light Snow
Cloud Levels
  • Broken at 2,000' AGL

Feb-22@
18:00 UTC

Feb-22 @ 18:00 UTC

Feb-22@
19:00 UTC

Feb-22 @ 19:00 UTC

PROB30 2218/2219 2SM -SN

Probable - 30% Likelihood

Probable - 30% Likelihood during this time.

Conditions
Light Snow

Feb-22@
18:00 UTC

Feb-22 @ 18:00 UTC

Feb-22@
22:00 UTC

Feb-22 @ 22:00 UTC

FM221800 23010G20KT P6SM -SN OVC025

From

FromStandard forecast or significant change

Wind
  • 230° at 10 KTS
  • {Gusting to 20 KTS
Conditions
Light Snow
Cloud Levels
  • Overcast at 2,500' AGL

Feb-22@
18:00 UTC

Feb-22 @ 18:00 UTC

Feb-22@
22:00 UTC

Feb-22 @ 22:00 UTC

TEMPO 2218/2222 3SM -SN OVC020

Temporary

TemporaryChanges expected for less than half the time period

Conditions
Light Snow
Cloud Levels
  • Overcast at 2,000' AGL

Feb-22@
22:00 UTC

Feb-22 @ 22:00 UTC

Feb-23@
02:00 UTC

Feb-23 @ 02:00 UTC

BECMG 2222/2224 25006KT RMK NXT FCST BY 222000Z

Becoming

BecomingConditions expected by Sat, Feb 23, 2019 @ 00:00 UTC

Wind
  • 250° at 6 KTS
Cloud Levels
  • Broken at 3,000' AGL

Feb-22@
22:00 UTC

Feb-22 @ 22:00 UTC

Feb-23@
02:00 UTC

Feb-23 @ 02:00 UTC

TEMPO 2222/2302 BKN020

Temporary

TemporaryChanges expected for less than half the time period

Cloud Levels
  • Broken at 2,000' AGL

Feb-22@
22:00 UTC

Feb-22 @ 22:00 UTC

Feb-23@
02:00 UTC

Feb-23 @ 02:00 UTC

FM222200 25012G22KT P6SM BKN030

From

FromStandard forecast or significant change

Wind
  • 250° at 12 KTS
  • {Gusting to 22 KTS
Cloud Levels
  • Broken at 3,000' AGL